Time;durP1;ratioP1;P1;durP2;ratioP2;P2;SDS_P1;SDS_P2;PMS_P1;PMS_P2;Temp;Humidity;BMP_temperature;BMP_pressure;BME280_temperature;BME280_humidity;BME280_pressure;Samples;Min_cycle;Max_cycle;Signal;HPM_P1;HPM_P2
2021/03/08 00:01:57;;;;;;;22.05;10.85;;;;;;;0.95;100.00;101786.72;4986884;28;20039;-55
2021/03/08 00:04:24;;;;;;;19.60;11.05;;;;;;;0.87;100.00;101773.09;4989350;28;20146;-55
2021/03/08 00:06:51;;;;;;;23.38;11.43;;;;;;;0.87;100.00;101770.47;4986815;28;20049;-54
2021/03/08 00:09:18;;;;;;;22.75;13.00;;;;;;;0.96;100.00;101772.59;4989403;28;20034;-55
2021/03/08 00:15:36;;;;;;;25.75;12.10;;;;;;;1.36;100.00;101772.34;4980129;28;20428;-55
2021/03/08 00:18:04;;;;;;;22.33;12.93;;;;;;;1.12;100.00;101777.09;4989060;28;20039;-55
2021/03/08 00:20:31;;;;;;;21.50;11.80;;;;;;;1.05;100.00;101771.31;4981729;28;20038;-56
2021/03/08 00:22:58;;;;;;;26.63;12.90;;;;;;;0.99;100.00;101768.97;4981654;28;20514;-56
2021/03/08 00:25:27;;;;;;;21.95;12.32;;;;;;;1.03;100.00;101773.16;4986643;28;20042;-55
2021/03/08 00:27:54;;;;;;;32.58;13.05;;;;;;;0.92;100.00;101765.81;4982631;28;20121;-56
2021/03/08 00:30:22;;;;;;;23.73;13.15;;;;;;;1.10;100.00;101771.06;4984291;28;20284;-55
2021/03/08 00:32:49;;;;;;;20.92;12.70;;;;;;;1.06;100.00;101769.53;4985260;28;20330;-55
2021/03/08 00:35:17;;;;;;;22.70;12.35;;;;;;;1.55;100.00;101770.44;4987290;28;20034;-54
2021/03/08 00:37:45;;;;;;;22.73;11.65;;;;;;;1.56;100.00;101766.06;4985128;28;20500;-52
2021/03/08 00:40:14;;;;;;;23.75;10.45;;;;;;;1.53;100.00;101755.66;4986089;28;20034;-56
2021/03/08 00:42:41;;;;;;;20.98;13.35;;;;;;;1.37;100.00;101767.00;4986532;28;20046;-55
2021/03/08 00:45:18;;;;;;;25.23;13.63;;;;;;;1.26;100.00;101774.63;4988524;28;20057;-55
2021/03/08 00:48:14;;;;;;;24.90;13.23;;;;;;;1.17;100.00;101767.19;4981851;28;20661;-56
2021/03/08 00:50:42;;;;;;;24.38;13.13;;;;;;;1.10;100.00;101766.66;4966475;28;20377;-56
2021/03/08 00:53:08;;;;;;;25.80;13.23;;;;;;;1.07;100.00;101763.34;4962980;28;20458;-56
2021/03/08 00:55:35;;;;;;;25.30;12.15;;;;;;;1.09;100.00;101761.47;4968943;28;20050;-56
2021/03/08 00:58:02;;;;;;;24.20;12.82;;;;;;;1.14;100.00;101767.34;4967311;28;20051;-57
2021/03/08 01:00:29;;;;;;;27.85;13.70;;;;;;;1.10;100.00;101764.00;4967312;28;20447;-56
2021/03/08 01:02:57;;;;;;;27.30;12.25;;;;;;;1.10;100.00;101757.91;4966190;28;20042;-56
2021/03/08 01:05:24;;;;;;;24.23;12.63;;;;;;;1.09;100.00;101753.56;4966821;28;20058;-56
2021/03/08 01:07:52;;;;;;;26.83;14.27;;;;;;;1.01;100.00;101757.44;4967442;28;20047;-56
2021/03/08 01:10:21;;;;;;;24.13;13.82;;;;;;;1.07;100.00;101761.56;4965243;28;20039;-56
2021/03/08 01:12:48;;;;;;;24.60;12.65;;;;;;;1.17;100.00;101752.25;4965787;28;20442;-52
2021/03/08 01:15:15;;;;;;;29.50;13.73;;;;;;;1.38;100.00;101752.06;4964305;28;20124;-54
2021/03/08 01:17:42;;;;;;;23.65;11.32;;;;;;;1.50;100.00;101750.56;4964653;28;20069;-56
2021/03/08 01:20:13;;;;;;;23.30;12.00;;;;;;;1.17;100.00;101746.97;4967835;28;20057;-54
2021/03/08 01:22:40;;;;;;;24.45;11.85;;;;;;;0.98;100.00;101739.19;4964725;28;20343;-54
2021/03/08 01:25:11;;;;;;;26.48;12.18;;;;;;;0.76;100.00;101738.59;4964671;28;20058;-56
2021/03/08 01:27:38;;;;;;;27.17;12.82;;;;;;;0.70;100.00;101747.63;4965716;28;20510;-53
2021/03/08 01:30:08;;;;;;;30.17;13.75;;;;;;;0.57;100.00;101739.50;4966622;28;20459;-53
2021/03/08 01:32:35;;;;;;;21.10;11.15;;;;;;;0.49;100.00;101741.66;4965686;28;20042;-55
2021/03/08 01:35:03;;;;;;;26.08;12.95;;;;;;;0.49;100.00;101742.50;4964364;28;20129;-53
2021/03/08 01:37:29;;;;;;;24.98;12.18;;;;;;;0.40;100.00;101742.94;4963204;28;20043;-55
2021/03/08 01:39:56;;;;;;;23.95;12.93;;;;;;;0.14;100.00;101733.69;4966017;28;20046;-54
2021/03/08 01:42:24;;;;;;;25.58;13.13;;;;;;;0.45;100.00;101737.47;4963357;28;20069;-56
2021/03/08 01:44:51;;;;;;;26.90;14.38;;;;;;;0.24;100.00;101740.22;4966301;28;20046;-55
2021/03/08 01:47:18;;;;;;;25.65;13.32;;;;;;;0.30;100.00;101742.53;4958644;28;20439;-51
2021/03/08 01:49:45;;;;;;;25.90;13.30;;;;;;;0.47;100.00;101738.25;4967540;28;20046;-52
2021/03/08 01:52:12;;;;;;;24.05;12.38;;;;;;;0.46;100.00;101732.13;4965126;28;20054;-53
2021/03/08 01:54:39;;;;;;;30.83;14.68;;;;;;;0.46;100.00;101728.66;4963180;28;20049;-55
2021/03/08 01:57:07;;;;;;;25.23;13.32;;;;;;;0.34;100.00;101728.34;4964537;28;20066;-54
2021/03/08 01:59:35;;;;;;;23.60;12.85;;;;;;;0.17;100.00;101734.41;4965156;28;20113;-57
2021/03/08 02:02:06;;;;;;;28.90;13.18;;;;;;;0.12;100.00;101731.13;4964985;28;20074;-56
2021/03/08 02:04:33;;;;;;;28.95;14.13;;;;;;;0.09;100.00;101730.44;4963270;28;20115;-55
2021/03/08 02:07:00;;;;;;;27.73;13.07;;;;;;;-0.10;100.00;101731.31;4963648;28;20135;-54
2021/03/08 02:09:27;;;;;;;32.22;15.38;;;;;;;-0.32;100.00;101731.44;4966055;28;20046;-55
2021/03/08 02:12:01;;;;;;;28.20;13.45;;;;;;;-0.41;100.00;101724.84;4965298;28;20051;-55
2021/03/08 02:14:48;;;;;;;29.50;13.63;;;;;;;-0.35;100.00;101724.56;4964281;28;20438;-53
2021/03/08 02:17:17;;;;;;;26.65;13.68;;;;;;;-0.39;100.00;101730.88;4954716;28;20050;-54
2021/03/08 02:20:04;;;;;;;32.05;14.55;;;;;;;-0.50;100.00;101720.00;4963675;28;20035;-54
2021/03/08 02:22:54;;;;;;;30.77;13.95;;;;;;;-0.61;100.00;101720.50;4963706;28;20423;-53
2021/03/08 02:25:36;;;;;;;30.65;14.90;;;;;;;-0.60;100.00;101722.19;4966397;28;20055;-55
2021/03/08 02:28:36;;;;;;;30.27;13.60;;;;;;;-0.67;100.00;101719.91;4961486;28;20046;-55
2021/03/08 02:31:05;;;;;;;31.25;13.52;;;;;;;-0.71;100.00;101717.44;4966203;28;20591;-52
2021/03/08 02:33:33;;;;;;;27.10;13.57;;;;;;;-0.85;100.00;101717.19;4961542;28;20042;-54
2021/03/08 02:36:04;;;;;;;34.72;14.30;;;;;;;-0.77;100.00;101717.69;4965754;28;20054;-51
2021/03/08 02:38:34;;;;;;;29.73;14.77;;;;;;;-0.90;100.00;101714.75;4967942;28;20043;-55
2021/03/08 02:41:04;;;;;;;31.92;13.32;;;;;;;-1.04;100.00;101723.22;4964900;28;20062;-54
2021/03/08 02:43:33;;;;;;;31.35;14.27;;;;;;;-1.00;100.00;101712.63;4963093;28;20288;-53
2021/03/08 02:46:04;;;;;;;31.95;14.90;;;;;;;-0.94;100.00;101710.56;4963337;28;20054;-54
2021/03/08 02:48:33;;;;;;;28.40;12.98;;;;;;;-0.81;100.00;101705.63;4965953;28;20436;-54
2021/03/08 02:51:03;;;;;;;27.60;13.30;;;;;;;-0.78;100.00;101710.75;4962534;28;20042;-54
2021/03/08 02:53:33;;;;;;;32.70;13.98;;;;;;;-0.77;100.00;101706.34;4961573;28;20066;-55
2021/03/08 02:56:03;;;;;;;31.23;14.50;;;;;;;-0.54;100.00;101703.56;4966029;28;20035;-55
2021/03/08 02:58:31;;;;;;;31.25;13.10;;;;;;;-0.58;100.00;101707.25;4968418;28;20047;-54
2021/03/08 03:01:08;;;;;;;27.70;13.70;;;;;;;-0.56;100.00;101707.16;4966153;28;20066;-54
2021/03/08 03:03:39;;;;;;;29.40;13.73;;;;;;;-0.66;100.00;101705.88;4964330;28;20316;-53
2021/03/08 03:06:06;;;;;;;34.75;16.60;;;;;;;-0.84;100.00;101708.38;4965076;28;20057;-55
2021/03/08 03:08:34;;;;;;;30.17;14.43;;;;;;;-0.90;100.00;101706.03;4968122;28;20049;-52
2021/03/08 03:11:01;;;;;;;39.22;14.57;;;;;;;-0.86;100.00;101702.38;4965159;28;20079;-55
2021/03/08 03:13:29;;;;;;;31.73;14.20;;;;;;;-0.91;100.00;101704.31;4962063;28;20489;-54
2021/03/08 03:15:58;;;;;;;32.25;15.95;;;;;;;-1.14;100.00;101703.56;4969152;28;20058;-54
2021/03/08 03:18:26;;;;;;;32.60;16.27;;;;;;;-1.17;100.00;101705.47;4970239;28;20451;-53
2021/03/08 03:20:56;;;;;;;31.38;15.43;;;;;;;-1.25;100.00;101697.91;4968724;28;20061;-53
2021/03/08 03:23:25;;;;;;;27.60;12.95;;;;;;;-1.31;100.00;101700.81;4967701;28;20057;-54
2021/03/08 03:25:52;;;;;;;32.55;15.50;;;;;;;-1.37;100.00;101708.94;4967600;28;20043;-53
2021/03/08 03:28:21;;;;;;;29.63;13.50;;;;;;;-1.40;100.00;101707.28;4971156;28;20050;-53
2021/03/08 03:30:49;;;;;;;32.58;15.52;;;;;;;-1.47;100.00;101701.44;4971292;28;20324;-51
2021/03/08 03:33:16;;;;;;;26.92;12.95;;;;;;;-1.50;100.00;101706.81;4966057;28;20054;-51
2021/03/08 03:35:43;;;;;;;28.48;13.80;;;;;;;-1.50;100.00;101700.72;4969573;28;20046;-53
2021/03/08 03:38:12;;;;;;;33.90;14.65;;;;;;;-1.45;100.00;101704.84;4967273;28;20355;-54
2021/03/08 03:40:39;;;;;;;32.38;15.55;;;;;;;-1.49;100.00;101708.53;4969058;28;20050;-47
2021/03/08 03:43:06;;;;;;;31.92;14.80;;;;;;;-1.50;100.00;101704.19;4966400;28;20043;-55
2021/03/08 03:45:33;;;;;;;35.50;14.13;;;;;;;-1.59;100.00;101699.31;4970898;28;20046;-52
2021/03/08 03:47:59;;;;;;;34.20;16.13;;;;;;;-1.64;100.00;101693.44;4969477;28;20435;-52
2021/03/08 03:50:27;;;;;;;34.20;16.00;;;;;;;-1.64;100.00;101701.31;4965881;28;20051;-53
2021/03/08 03:52:54;;;;;;;30.13;14.27;;;;;;;-1.69;100.00;101711.94;4965724;28;20343;-52
2021/03/08 03:55:23;;;;;;;33.85;16.30;;;;;;;-1.68;100.00;101712.81;4969411;28;20042;-54
2021/03/08 03:57:57;;;;;;;33.35;15.00;;;;;;;-1.77;100.00;101720.13;4967238;28;20042;-54
2021/03/08 04:00:25;;;;;;;32.90;13.98;;;;;;;-2.05;100.00;101719.50;4967012;28;20050;-54
2021/03/08 04:02:57;;;;;;;36.53;15.43;;;;;;;-2.21;100.00;101730.56;4967878;28;20035;-51
2021/03/08 04:05:25;;;;;;;34.35;14.55;;;;;;;-2.22;100.00;101723.63;4964020;28;20038;-52
2021/03/08 04:07:54;;;;;;;35.95;16.70;;;;;;;-2.31;100.00;101724.81;4965361;28;20526;-53
2021/03/08 04:10:22;;;;;;;37.25;15.48;;;;;;;-2.43;100.00;101731.34;4970674;28;20053;-53
2021/03/08 04:12:54;;;;;;;31.52;13.70;;;;;;;-2.50;100.00;101729.88;4968810;28;20049;-51
2021/03/08 04:15:23;;;;;;;38.22;16.65;;;;;;;-2.39;100.00;101731.25;4964866;28;20046;-53
2021/03/08 04:17:51;;;;;;;39.53;16.73;;;;;;;-2.21;100.00;101727.94;5155124;23;21236;-53
2021/03/08 04:20:19;;;;;;;34.22;15.45;;;;;;;-2.18;100.00;101733.06;4953014;28;20332;-52
2021/03/08 04:22:48;;;;;;;37.15;15.95;;;;;;;-2.08;100.00;101729.16;4965794;28;20057;-49
2021/03/08 04:25:17;;;;;;;36.47;16.63;;;;;;;-2.27;100.00;101742.13;4966793;28;20049;-52
2021/03/08 04:27:45;;;;;;;31.42;14.65;;;;;;;-2.48;100.00;101738.53;4964061;28;20046;-50
2021/03/08 04:30:13;;;;;;;31.50;15.98;;;;;;;-2.56;100.00;101748.41;4964370;28;20390;-53
2021/03/08 04:32:41;;;;;;;39.97;16.40;;;;;;;-2.49;100.00;101736.81;4968093;28;20054;-53
2021/03/08 04:35:09;;;;;;;41.88;17.45;;;;;;;-2.37;100.00;101739.88;4962727;28;20339;-52
2021/03/08 04:37:38;;;;;;;41.67;16.95;;;;;;;-2.29;100.00;101741.31;4966334;28;20059;-55
2021/03/08 04:40:07;;;;;;;42.75;18.58;;;;;;;-2.35;100.00;101748.53;4968844;28;20039;-53
2021/03/08 04:42:34;;;;;;;38.25;16.98;;;;;;;-2.27;100.00;101751.72;4966435;28;20046;-53
2021/03/08 04:45:04;;;;;;;36.17;16.88;;;;;;;-2.25;100.00;101747.28;4965295;28;20050;-51
2021/03/08 04:47:32;;;;;;;40.20;16.45;;;;;;;-2.18;100.00;101756.63;4965889;28;20053;-53
2021/03/08 04:49:59;;;;;;;36.20;16.50;;;;;;;-2.23;100.00;101753.31;4963863;28;20047;-46
2021/03/08 04:52:26;;;;;;;44.83;18.42;;;;;;;-2.24;100.00;101756.81;4963791;28;20053;-52
2021/03/08 04:54:54;;;;;;;37.40;18.17;;;;;;;-2.17;100.00;101757.47;4966574;28;20043;-51
2021/03/08 04:57:21;;;;;;;43.47;17.58;;;;;;;-2.18;100.00;101758.34;4967240;28;20049;-51
2021/03/08 04:59:49;;;;;;;42.03;17.23;;;;;;;-2.16;100.00;101754.78;4965980;28;20051;-52
2021/03/08 05:02:30;;;;;;;38.28;15.77;;;;;;;-2.08;100.00;101759.75;4966668;28;20050;-55
2021/03/08 05:04:58;;;;;;;43.22;17.38;;;;;;;-2.20;100.00;101757.56;4965472;28;20062;-54
2021/03/08 05:07:25;;;;;;;42.80;18.90;;;;;;;-2.35;100.00;101758.97;4966759;28;20338;-51
2021/03/08 05:09:54;;;;;;;46.28;19.52;;;;;;;-2.29;100.00;101745.69;4965891;28;20039;-55
2021/03/08 05:12:22;;;;;;;42.88;18.23;;;;;;;-2.01;100.00;101748.13;4969076;28;20038;-53
2021/03/08 05:14:49;;;;;;;40.47;19.23;;;;;;;-1.93;100.00;101740.81;4963524;28;20035;-50
2021/03/08 05:17:17;;;;;;;41.42;18.10;;;;;;;-1.89;100.00;101741.53;4966963;28;20039;-53
2021/03/08 05:19:46;;;;;;;40.58;17.58;;;;;;;-1.78;100.00;101749.00;4964372;28;20134;-53
2021/03/08 05:22:14;;;;;;;40.85;17.65;;;;;;;-1.85;100.00;101745.75;4965937;28;20051;-53
2021/03/08 05:24:41;;;;;;;36.92;17.20;;;;;;;-1.95;100.00;101753.09;4963799;28;20047;-53
2021/03/08 05:27:09;;;;;;;43.42;17.25;;;;;;;-2.12;100.00;101760.75;4966824;28;20055;-53
2021/03/08 05:29:38;;;;;;;42.95;17.02;;;;;;;-2.09;100.00;101755.41;4965221;28;20049;-52
2021/03/08 05:32:07;;;;;;;38.30;16.65;;;;;;;-1.87;100.00;101752.81;4965683;28;20050;-53
2021/03/08 05:34:34;;;;;;;41.67;19.25;;;;;;;-2.21;100.00;101761.09;4963993;28;20039;-53
2021/03/08 05:37:03;;;;;;;42.05;16.73;;;;;;;-2.50;100.00;101761.25;4964973;28;20035;-54
2021/03/08 05:39:30;;;;;;;44.13;18.55;;;;;;;-2.50;100.00;101761.25;4965645;28;20065;-53
2021/03/08 05:42:03;;;;;;;35.83;16.42;;;;;;;-2.32;100.00;101761.53;4965463;28;20038;-55
2021/03/08 05:44:31;;;;;;;42.60;16.58;;;;;;;-2.29;100.00;101761.41;4964206;28;20423;-53
2021/03/08 05:47:18;;;;;;;42.55;16.70;;;;;;;-2.15;100.00;101763.50;4964353;28;20054;-53
2021/03/08 05:50:03;;;;;;;48.45;18.85;;;;;;;-2.15;100.00;101766.13;4962940;28;20057;-53
2021/03/08 05:53:07;;;;;;;43.25;18.30;;;;;;;-2.12;100.00;101755.53;4965678;28;20046;-54
2021/03/08 05:55:53;;;;;;;45.03;18.30;;;;;;;-2.11;100.00;101760.69;4966373;28;20057;-55
2021/03/08 05:58:30;;;;;;;38.55;18.00;;;;;;;-2.14;100.00;101752.97;4963606;28;20062;-48
2021/03/08 06:01:30;;;;;;;41.10;17.85;;;;;;;-2.23;100.00;101762.94;4963271;28;20312;-48
2021/03/08 06:04:06;;;;;;;39.00;17.30;;;;;;;-2.42;100.00;101774.91;4950630;28;20132;-53
2021/03/08 06:06:48;;;;;;;45.85;18.63;;;;;;;-2.42;100.00;101771.47;4965847;28;20043;-53
2021/03/08 06:09:23;;;;;;;46.40;19.42;;;;;;;-2.45;100.00;101771.59;4946974;28;20055;-55
2021/03/08 06:12:01;;;;;;;39.92;17.73;;;;;;;-2.29;100.00;101770.09;4964121;28;20042;-55
2021/03/08 06:14:34;;;;;;;48.85;20.55;;;;;;;-2.50;100.00;101766.50;4966145;28;20053;-54
2021/03/08 06:17:02;;;;;;;46.95;18.52;;;;;;;-2.49;100.00;101768.22;4965413;28;20329;-54
2021/03/08 06:19:30;;;;;;;46.63;18.85;;;;;;;-2.25;100.00;101768.22;4966324;28;20390;-53
2021/03/08 06:21:59;;;;;;;50.40;20.40;;;;;;;-2.27;100.00;101778.75;4961893;28;20039;-53
2021/03/08 06:24:28;;;;;;;44.25;18.42;;;;;;;-2.29;100.00;101769.25;4963625;28;20046;-51
2021/03/08 06:26:55;;;;;;;40.03;17.38;;;;;;;-2.09;100.00;101765.88;4964771;28;20047;-53
2021/03/08 06:29:23;;;;;;;49.60;20.35;;;;;;;-1.97;100.00;101770.66;4964522;28;20046;-53
2021/03/08 06:31:51;;;;;;;52.70;21.27;;;;;;;-2.05;100.00;101771.88;4966042;28;20077;-53
2021/03/08 06:34:18;;;;;;;46.80;19.73;;;;;;;-2.06;100.00;101780.63;4962542;28;20168;-52
2021/03/08 06:36:45;;;;;;;41.67;20.13;;;;;;;-2.25;100.00;101782.16;4965207;28;20039;-54
2021/03/08 06:39:13;;;;;;;47.30;20.88;;;;;;;-2.31;100.00;101777.16;4961338;28;20065;-53
2021/03/08 06:41:40;;;;;;;45.13;19.85;;;;;;;-2.30;100.00;101764.91;4964593;28;20343;-52
2021/03/08 06:44:08;;;;;;;46.97;19.60;;;;;;;-2.21;100.00;101775.06;4962899;28;20047;-55
2021/03/08 06:46:35;;;;;;;49.10;20.23;;;;;;;-2.25;100.00;101771.69;4963979;28;20038;-55
2021/03/08 06:49:03;;;;;;;53.50;22.23;;;;;;;-2.44;100.00;101771.53;4962221;28;20175;-54
2021/03/08 06:51:30;;;;;;;49.95;20.20;;;;;;;-2.51;100.00;101775.28;4964731;28;20048;-55
2021/03/08 06:53:57;;;;;;;51.78;19.65;;;;;;;-2.55;100.00;101775.41;4965773;28;20039;-54
2021/03/08 06:56:25;;;;;;;57.20;21.33;;;;;;;-2.63;100.00;101773.09;4966281;28;20055;-54
2021/03/08 06:59:07;;;;;;;51.20;20.83;;;;;;;-2.58;100.00;101776.38;4967485;28;20058;-51
2021/03/08 07:01:34;;;;;;;52.25;22.08;;;;;;;-2.53;100.00;101774.44;4968841;28;20338;-53
2021/03/08 07:04:19;;;;;;;49.83;20.60;;;;;;;-2.56;100.00;101782.41;4967309;28;20042;-50
2021/03/08 07:07:09;;;;;;;54.72;22.90;;;;;;;-2.32;100.00;101780.69;4967728;28;20047;-54
2021/03/08 07:09:47;;;;;;;54.97;20.63;;;;;;;-2.16;100.00;101791.41;4968435;28;20105;-55
2021/03/08 07:12:15;;;;;;;55.55;22.58;;;;;;;-2.02;100.00;101790.91;4965465;28;20402;-55
2021/03/08 07:14:43;;;;;;;52.45;22.63;;;;;;;-2.03;100.00;101786.56;4968313;28;20039;-55
2021/03/08 07:17:30;;;;;;;51.97;21.00;;;;;;;-1.87;100.00;101780.75;4969285;28;20038;-55
2021/03/08 07:19:58;;;;;;;57.38;22.85;;;;;;;-1.78;100.00;101786.50;4968811;28;20058;-52
2021/03/08 07:22:42;;;;;;;58.42;22.02;;;;;;;-1.95;100.00;101784.53;4968050;28;20034;-55
2021/03/08 07:25:18;;;;;;;48.22;18.65;;;;;;;-1.82;100.00;101794.53;4965287;28;20070;-54
2021/03/08 07:27:46;;;;;;;49.42;21.52;;;;;;;-1.74;100.00;101795.94;4966716;28;20039;-55
2021/03/08 07:30:16;;;;;;;50.95;22.58;;;;;;;-1.79;100.00;101805.72;4968425;28;20047;-53
2021/03/08 07:32:57;;;;;;;51.90;22.45;;;;;;;-1.73;100.00;101802.91;4966851;28;20253;-55
2021/03/08 07:35:36;;;;;;;53.20;22.50;;;;;;;-1.40;100.00;101797.22;4967822;28;20110;-56
2021/03/08 07:38:04;;;;;;;60.78;23.40;;;;;;;-1.06;100.00;101797.63;4969155;28;20097;-55
2021/03/08 07:40:32;;;;;;;52.92;22.88;;;;;;;-1.06;100.00;101801.09;4967837;28;20105;-55
2021/03/08 07:42:59;;;;;;;57.53;21.63;;;;;;;-0.92;100.00;101786.53;4967533;28;20046;-52
2021/03/08 07:45:44;;;;;;;52.22;23.17;;;;;;;-0.23;100.00;101796.66;4966010;28;20043;-55
2021/03/08 07:48:13;;;;;;;53.60;22.15;;;;;;;0.46;100.00;101804.88;4963815;28;20038;-57
2021/03/08 07:50:41;;;;;;;54.35;21.88;;;;;;;0.87;100.00;101802.00;4967921;28;20059;-56
2021/03/08 07:53:23;;;;;;;54.03;21.77;;;;;;;0.66;100.00;101806.53;4964024;28;20077;-56
2021/03/08 07:55:52;;;;;;;43.90;19.85;;;;;;;1.42;100.00;101808.91;4966561;28;20046;-56
2021/03/08 07:58:20;;;;;;;46.05;21.38;;;;;;;1.72;100.00;101808.22;4966634;28;20043;-55
2021/03/08 08:00:47;;;;;;;41.17;21.30;;;;;;;1.47;100.00;101804.22;4962567;28;20069;-54
2021/03/08 08:03:16;;;;;;;42.67;20.98;;;;;;;1.71;100.00;101796.81;4961388;28;20323;-54
2021/03/08 08:05:44;;;;;;;44.55;23.27;;;;;;;1.56;100.00;101800.28;4966026;28;20043;-54
2021/03/08 08:08:12;;;;;;;55.20;24.13;;;;;;;2.04;100.00;101813.53;4963775;28;20039;-55
2021/03/08 08:10:39;;;;;;;49.72;23.25;;;;;;;2.40;100.00;101815.09;4967442;28;20043;-58
2021/03/08 08:13:07;;;;;;;46.35;21.85;;;;;;;2.79;100.00;101811.13;4963760;28;20059;-56
2021/03/08 08:15:36;;;;;;;47.08;23.13;;;;;;;3.10;100.00;101804.06;4967251;28;20453;-55
2021/03/08 08:18:07;;;;;;;55.05;24.52;;;;;;;3.05;100.00;101809.63;4965493;28;20050;-55
2021/03/08 08:20:34;;;;;;;47.03;21.90;;;;;;;3.04;100.00;101809.72;4966416;28;20372;-57
2021/03/08 08:23:03;;;;;;;52.97;25.10;;;;;;;2.39;100.00;101808.94;4966004;28;20403;-58
2021/03/08 08:25:31;;;;;;;47.20;22.08;;;;;;;2.46;100.00;101811.25;4967186;28;20543;-58
2021/03/08 08:27:59;;;;;;;50.80;23.60;;;;;;;1.98;100.00;101817.34;4966570;28;20043;-58
2021/03/08 08:30:27;;;;;;;60.50;24.75;;;;;;;1.99;100.00;101821.69;4968288;28;20501;-57
2021/03/08 08:32:56;;;;;;;49.55;24.27;;;;;;;2.25;100.00;101822.06;4967197;28;20330;-57
2021/03/08 08:35:30;;;;;;;50.03;23.33;;;;;;;2.17;100.00;101821.63;4965339;28;20054;-55
2021/03/08 08:38:20;;;;;;;52.95;23.67;;;;;;;2.16;100.00;101817.31;4949372;28;20121;-55
2021/03/08 08:41:16;;;;;;;50.88;22.83;;;;;;;2.47;100.00;101807.69;4964605;28;20126;-55
2021/03/08 08:43:43;;;;;;;53.60;23.85;;;;;;;2.58;100.00;101823.78;4965017;28;20046;-57
2021/03/08 08:46:23;;;;;;;46.78;19.73;;;;;;;2.37;100.00;101810.84;4967393;28;20047;-56
2021/03/08 08:49:04;;;;;;;50.42;22.13;;;;;;;2.59;100.00;101809.63;4968654;28;20063;-56
2021/03/08 08:51:52;;;;;;;47.05;21.45;;;;;;;2.56;100.00;101815.06;4962040;28;20055;-56
2021/03/08 08:54:50;;;;;;;46.10;19.45;;;;;;;2.81;100.00;101808.38;4964116;28;20292;-58
2021/03/08 08:57:19;;;;;;;51.10;21.13;;;;;;;2.99;100.00;101809.13;4967642;28;20049;-56
2021/03/08 08:59:50;;;;;;;56.38;24.27;;;;;;;3.26;100.00;101804.00;4965829;28;20043;-57
2021/03/08 09:02:30;;;;;;;49.10;20.83;;;;;;;3.39;100.00;101804.97;4967843;28;20035;-54
2021/03/08 09:04:58;;;;;;;51.00;22.17;;;;;;;3.40;100.00;101803.19;4964948;28;20399;-56
2021/03/08 09:07:27;;;;;;;43.75;23.15;;;;;;;3.68;100.00;101799.69;4967563;28;20361;-56
2021/03/08 09:09:55;;;;;;;46.22;21.05;;;;;;;4.10;100.00;101799.78;4964086;28;20392;-57
2021/03/08 09:12:39;;;;;;;47.25;21.40;;;;;;;4.47;100.00;101811.50;4966615;28;20042;-57
2021/03/08 09:15:09;;;;;;;41.67;20.58;;;;;;;4.30;100.00;101803.81;4961586;28;20435;-56
2021/03/08 09:17:43;;;;;;;54.30;23.60;;;;;;;4.39;100.00;101808.50;4964462;28;20047;-56
2021/03/08 09:20:22;;;;;;;48.63;22.67;;;;;;;5.82;100.00;101811.28;4963818;28;20398;-57
2021/03/08 09:22:50;;;;;;;42.42;21.20;;;;;;;6.79;100.00;101808.81;4964627;28;20069;-57
2021/03/08 09:25:20;;;;;;;45.47;22.38;;;;;;;6.83;100.00;101802.31;4963480;28;20047;-58
2021/03/08 09:27:49;;;;;;;46.15;21.92;;;;;;;6.60;100.00;101798.69;4967919;28;20042;-56
2021/03/08 09:30:18;;;;;;;44.58;21.33;;;;;;;7.56;100.00;101792.34;4964671;28;20042;-56
2021/03/08 09:32:50;;;;;;;43.40;20.05;;;;;;;6.80;100.00;101794.56;4957887;28;20042;-58
2021/03/08 09:35:19;;;;;;;37.92;20.42;;;;;;;5.04;100.00;101795.50;4958758;28;20436;-58
2021/03/08 09:37:47;;;;;;;44.92;23.00;;;;;;;4.87;100.00;101800.09;4962553;28;20046;-56
2021/03/08 09:40:17;;;;;;;43.38;20.67;;;;;;;5.92;100.00;101802.69;4965643;28;20134;-57
2021/03/08 09:42:44;;;;;;;37.17;19.52;;;;;;;6.07;100.00;101801.66;4962825;28;20034;-58
2021/03/08 09:45:16;;;;;;;40.58;21.23;;;;;;;5.70;100.00;101798.91;4963132;28;20050;-57
2021/03/08 09:47:43;;;;;;;42.20;18.38;;;;;;;6.57;100.00;101790.13;4965878;28;20047;-56
2021/03/08 09:50:31;;;;;;;39.05;20.15;;;;;;;5.25;100.00;101798.50;4963743;28;20050;-58
2021/03/08 09:52:58;;;;;;;36.30;20.23;;;;;;;5.90;100.00;101799.28;4967349;28;20061;-57
2021/03/08 09:55:28;;;;;;;39.72;18.45;;;;;;;5.52;100.00;101807.19;4963794;28;20043;-55
2021/03/08 09:57:56;;;;;;;37.15;17.83;;;;;;;5.57;100.00;101798.94;4964875;28;20042;-58
2021/03/08 10:00:27;;;;;;;33.17;16.02;;;;;;;7.09;100.00;101799.50;4964523;28;20042;-58
2021/03/08 10:02:59;;;;;;;34.05;16.55;;;;;;;7.00;100.00;101805.50;4964876;28;20043;-56
2021/03/08 10:05:43;;;;;;;36.88;18.58;;;;;;;6.07;100.00;101804.31;4960282;28;20332;-56
2021/03/08 10:08:11;;;;;;;36.60;18.42;;;;;;;5.39;100.00;101805.47;4962952;28;20450;-58
2021/03/08 10:10:49;;;;;;;36.85;18.80;;;;;;;4.92;100.00;101792.72;4965353;28;20055;-57
2021/03/08 10:13:17;;;;;;;35.63;17.65;;;;;;;5.32;100.00;101795.31;4960617;28;20047;-55
2021/03/08 10:15:48;;;;;;;45.45;18.70;;;;;;;5.52;100.00;101790.44;4960223;28;20327;-55
2021/03/08 10:18:16;;;;;;;41.33;18.20;;;;;;;6.50;100.00;101781.78;4963356;28;20062;-57
2021/03/08 10:20:49;;;;;;;40.50;18.23;;;;;;;7.43;100.00;101783.63;4963984;28;20050;-57
2021/03/08 10:23:19;;;;;;;32.15;16.63;;;;;;;7.58;100.00;101779.78;4959826;28;20927;-55
2021/03/08 10:25:46;;;;;;;36.58;17.27;;;;;;;8.18;92.74;101781.31;4964973;28;20066;-55
2021/03/08 10:28:14;;;;;;;33.45;16.30;;;;;;;8.65;83.39;101781.94;4964751;28;20043;-55
2021/03/08 10:30:41;;;;;;;32.05;18.15;;;;;;;7.56;92.04;101776.38;4965411;28;20385;-56
2021/03/08 10:33:12;;;;;;;32.65;16.85;;;;;;;8.18;88.09;101776.84;4963343;28;20077;-58
2021/03/08 10:35:40;;;;;;;34.17;16.80;;;;;;;8.99;79.86;101775.59;4965479;28;20039;-57
2021/03/08 10:38:26;;;;;;;33.45;17.95;;;;;;;8.13;92.22;101773.69;4964133;28;20067;-57
2021/03/08 10:40:54;;;;;;;31.30;16.42;;;;;;;6.90;100.00;101778.78;4961303;28;20125;-57
2021/03/08 10:43:22;;;;;;;30.30;16.13;;;;;;;6.43;100.00;101776.06;4961333;28;20039;-57
2021/03/08 10:45:50;;;;;;;35.28;18.15;;;;;;;6.29;100.00;101776.22;4963801;28;20043;-57
2021/03/08 10:48:17;;;;;;;37.17;16.77;;;;;;;6.47;100.00;101777.53;4963022;28;20043;-57
2021/03/08 10:50:46;;;;;;;29.65;15.88;;;;;;;7.16;100.00;101776.81;4961924;28;20042;-57
2021/03/08 10:53:28;;;;;;;32.03;17.70;;;;;;;6.82;100.00;101774.06;4958753;28;20046;-57
2021/03/08 10:55:54;;;;;;;33.08;16.15;;;;;;;7.10;100.00;101769.31;4960439;28;20430;-57
2021/03/08 10:58:34;;;;;;;33.75;16.65;;;;;;;8.46;83.52;101773.78;4957850;28;20047;-55
2021/03/08 11:01:07;;;;;;;28.50;15.43;;;;;;;8.12;100.00;101772.00;4961864;28;20300;-57
2021/03/08 11:03:36;;;;;;;31.88;16.52;;;;;;;7.33;91.01;101766.69;4955396;28;20141;-57
2021/03/08 11:06:04;;;;;;;27.13;16.08;;;;;;;6.89;99.14;101772.63;4958370;28;20066;-57
2021/03/08 11:08:34;;;;;;;34.80;14.85;;;;;;;7.98;98.82;101767.81;4959808;28;20074;-56
2021/03/08 11:11:02;;;;;;;30.50;15.50;;;;;;;7.31;100.00;101768.63;4962453;28;20054;-57
2021/03/08 11:13:32;;;;;;;29.13;15.00;;;;;;;8.73;90.26;101775.97;4958892;28;20035;-56
2021/03/08 11:16:10;;;;;;;30.95;14.82;;;;;;;9.68;64.13;101768.84;4963370;28;20070;-54
2021/03/08 11:18:37;;;;;;;28.25;13.70;;;;;;;10.17;61.31;101768.00;4963480;28;20200;-56
2021/03/08 11:21:25;;;;;;;28.08;14.45;;;;;;;9.93;61.12;101765.69;4961334;28;20086;-56
2021/03/08 11:23:52;;;;;;;29.33;14.60;;;;;;;8.60;64.76;101766.34;4960299;28;20050;-55
2021/03/08 11:26:21;;;;;;;25.33;13.20;;;;;;;8.37;67.36;101770.03;4962732;28;20134;-57
2021/03/08 11:28:48;;;;;;;27.92;13.35;;;;;;;10.23;57.69;101765.78;4960631;28;20168;-57